sensor_id;sensor_type;location;lat;lon;timestamp;P1;durP1;ratioP1;P2;durP2;ratioP2
5042;SDS011;2540;50.928;6.856;2023-08-07T00:00:19;10.00;;;2.37;;
5042;SDS011;2540;50.928;6.856;2023-08-07T00:02:44;8.17;;;2.00;;
5042;SDS011;2540;50.928;6.856;2023-08-07T00:05:09;13.90;;;2.90;;
5042;SDS011;2540;50.928;6.856;2023-08-07T00:07:35;8.17;;;2.13;;
5042;SDS011;2540;50.928;6.856;2023-08-07T00:10:00;7.73;;;2.97;;
5042;SDS011;2540;50.928;6.856;2023-08-07T00:12:26;15.00;;;3.07;;
5042;SDS011;2540;50.928;6.856;2023-08-07T00:14:52;13.03;;;2.90;;
5042;SDS011;2540;50.928;6.856;2023-08-07T00:17:17;8.47;;;2.30;;
5042;SDS011;2540;50.928;6.856;2023-08-07T00:19:42;9.33;;;2.53;;
5042;SDS011;2540;50.928;6.856;2023-08-07T00:22:08;16.33;;;2.57;;
5042;SDS011;2540;50.928;6.856;2023-08-07T00:24:33;9.87;;;2.93;;
5042;SDS011;2540;50.928;6.856;2023-08-07T00:26:59;6.93;;;2.87;;
5042;SDS011;2540;50.928;6.856;2023-08-07T00:29:24;6.43;;;2.27;;
5042;SDS011;2540;50.928;6.856;2023-08-07T00:31:49;15.80;;;3.00;;
5042;SDS011;2540;50.928;6.856;2023-08-07T00:34:15;7.63;;;2.57;;
5042;SDS011;2540;50.928;6.856;2023-08-07T00:36:40;6.67;;;2.90;;
5042;SDS011;2540;50.928;6.856;2023-08-07T00:39:05;13.10;;;2.80;;
5042;SDS011;2540;50.928;6.856;2023-08-07T00:41:32;17.70;;;3.43;;
5042;SDS011;2540;50.928;6.856;2023-08-07T00:43:58;10.40;;;2.50;;
5042;SDS011;2540;50.928;6.856;2023-08-07T00:46:23;10.67;;;3.23;;
5042;SDS011;2540;50.928;6.856;2023-08-07T00:48:49;9.07;;;3.33;;
5042;SDS011;2540;50.928;6.856;2023-08-07T00:51:14;10.10;;;3.17;;
5042;SDS011;2540;50.928;6.856;2023-08-07T00:53:40;19.23;;;3.30;;
5042;SDS011;2540;50.928;6.856;2023-08-07T00:56:05;8.73;;;2.67;;
5042;SDS011;2540;50.928;6.856;2023-08-07T00:58:31;8.83;;;2.87;;
5042;SDS011;2540;50.928;6.856;2023-08-07T01:00:57;8.83;;;3.20;;
5042;SDS011;2540;50.928;6.856;2023-08-07T01:03:23;14.20;;;2.80;;
5042;SDS011;2540;50.928;6.856;2023-08-07T01:05:48;17.20;;;3.60;;
5042;SDS011;2540;50.928;6.856;2023-08-07T01:08:13;7.47;;;3.00;;
5042;SDS011;2540;50.928;6.856;2023-08-07T01:13:16;6.80;;;2.93;;
5042;SDS011;2540;50.928;6.856;2023-08-07T01:15:45;10.67;;;2.87;;
5042;SDS011;2540;50.928;6.856;2023-08-07T01:18:11;10.57;;;3.93;;
5042;SDS011;2540;50.928;6.856;2023-08-07T01:20:38;7.23;;;3.10;;
5042;SDS011;2540;50.928;6.856;2023-08-07T01:23:04;13.47;;;3.00;;
5042;SDS011;2540;50.928;6.856;2023-08-07T01:25:29;5.97;;;2.90;;
5042;SDS011;2540;50.928;6.856;2023-08-07T01:28:00;6.23;;;2.13;;
5042;SDS011;2540;50.928;6.856;2023-08-07T01:33:27;11.40;;;2.67;;
5042;SDS011;2540;50.928;6.856;2023-08-07T01:35:57;9.77;;;2.83;;
5042;SDS011;2540;50.928;6.856;2023-08-07T01:38:24;12.53;;;2.93;;
5042;SDS011;2540;50.928;6.856;2023-08-07T01:40:50;7.87;;;2.83;;
5042;SDS011;2540;50.928;6.856;2023-08-07T01:43:16;13.70;;;3.13;;
5042;SDS011;2540;50.928;6.856;2023-08-07T01:45:43;9.23;;;2.50;;
5042;SDS011;2540;50.928;6.856;2023-08-07T01:48:09;9.90;;;2.33;;
5042;SDS011;2540;50.928;6.856;2023-08-07T01:50:34;7.63;;;2.20;;
5042;SDS011;2540;50.928;6.856;2023-08-07T01:53:00;9.53;;;2.93;;
5042;SDS011;2540;50.928;6.856;2023-08-07T01:55:27;8.27;;;3.03;;
5042;SDS011;2540;50.928;6.856;2023-08-07T01:57:52;9.60;;;2.90;;
5042;SDS011;2540;50.928;6.856;2023-08-07T02:00:18;11.10;;;2.57;;
5042;SDS011;2540;50.928;6.856;2023-08-07T02:02:43;14.57;;;2.63;;
5042;SDS011;2540;50.928;6.856;2023-08-07T02:05:10;12.50;;;2.57;;
5042;SDS011;2540;50.928;6.856;2023-08-07T02:07:35;8.07;;;2.80;;
5042;SDS011;2540;50.928;6.856;2023-08-07T02:10:01;5.40;;;2.47;;
5042;SDS011;2540;50.928;6.856;2023-08-07T02:12:26;8.03;;;2.40;;
5042;SDS011;2540;50.928;6.856;2023-08-07T02:14:52;12.63;;;2.63;;
5042;SDS011;2540;50.928;6.856;2023-08-07T02:17:20;5.90;;;2.07;;
5042;SDS011;2540;50.928;6.856;2023-08-07T02:19:45;9.30;;;3.00;;
5042;SDS011;2540;50.928;6.856;2023-08-07T02:22:11;7.50;;;1.93;;
5042;SDS011;2540;50.928;6.856;2023-08-07T02:24:36;9.37;;;2.00;;
5042;SDS011;2540;50.928;6.856;2023-08-07T02:27:01;3.70;;;2.03;;
5042;SDS011;2540;50.928;6.856;2023-08-07T02:29:27;8.40;;;2.20;;
5042;SDS011;2540;50.928;6.856;2023-08-07T02:31:52;6.30;;;2.33;;
5042;SDS011;2540;50.928;6.856;2023-08-07T02:34:17;6.90;;;2.13;;
5042;SDS011;2540;50.928;6.856;2023-08-07T02:36:43;12.40;;;2.63;;
5042;SDS011;2540;50.928;6.856;2023-08-07T02:39:08;6.73;;;2.13;;
5042;SDS011;2540;50.928;6.856;2023-08-07T02:41:33;6.57;;;1.83;;
5042;SDS011;2540;50.928;6.856;2023-08-07T02:43:59;5.90;;;1.97;;
5042;SDS011;2540;50.928;6.856;2023-08-07T02:46:24;6.10;;;2.30;;
5042;SDS011;2540;50.928;6.856;2023-08-07T02:48:49;9.13;;;2.70;;
5042;SDS011;2540;50.928;6.856;2023-08-07T02:51:15;4.43;;;2.40;;
5042;SDS011;2540;50.928;6.856;2023-08-07T02:53:40;6.60;;;2.43;;
5042;SDS011;2540;50.928;6.856;2023-08-07T02:56:05;12.47;;;2.27;;
5042;SDS011;2540;50.928;6.856;2023-08-07T02:58:31;4.67;;;2.30;;
5042;SDS011;2540;50.928;6.856;2023-08-07T03:00:56;8.53;;;2.40;;
5042;SDS011;2540;50.928;6.856;2023-08-07T03:03:21;5.83;;;2.67;;
5042;SDS011;2540;50.928;6.856;2023-08-07T03:05:50;11.57;;;2.87;;
5042;SDS011;2540;50.928;6.856;2023-08-07T03:08:16;8.83;;;2.60;;
5042;SDS011;2540;50.928;6.856;2023-08-07T03:10:41;6.53;;;2.80;;
5042;SDS011;2540;50.928;6.856;2023-08-07T03:13:07;8.50;;;2.20;;
5042;SDS011;2540;50.928;6.856;2023-08-07T03:15:32;10.63;;;2.23;;
5042;SDS011;2540;50.928;6.856;2023-08-07T03:17:57;9.90;;;2.40;;
5042;SDS011;2540;50.928;6.856;2023-08-07T03:20:23;6.30;;;1.90;;
5042;SDS011;2540;50.928;6.856;2023-08-07T03:22:48;8.87;;;2.53;;
5042;SDS011;2540;50.928;6.856;2023-08-07T03:25:13;18.87;;;2.90;;
5042;SDS011;2540;50.928;6.856;2023-08-07T03:27:39;4.43;;;2.00;;
5042;SDS011;2540;50.928;6.856;2023-08-07T03:30:04;9.37;;;2.90;;
5042;SDS011;2540;50.928;6.856;2023-08-07T03:32:30;5.70;;;2.20;;
5042;SDS011;2540;50.928;6.856;2023-08-07T03:34:55;17.77;;;2.37;;
5042;SDS011;2540;50.928;6.856;2023-08-07T03:37:20;4.87;;;2.30;;
5042;SDS011;2540;50.928;6.856;2023-08-07T03:39:46;10.27;;;2.57;;
5042;SDS011;2540;50.928;6.856;2023-08-07T03:42:13;14.10;;;2.77;;
5042;SDS011;2540;50.928;6.856;2023-08-07T03:44:39;9.00;;;3.13;;
5042;SDS011;2540;50.928;6.856;2023-08-07T03:47:05;9.87;;;2.63;;
5042;SDS011;2540;50.928;6.856;2023-08-07T03:49:30;11.30;;;2.30;;
5042;SDS011;2540;50.928;6.856;2023-08-07T03:51:55;5.47;;;2.53;;
5042;SDS011;2540;50.928;6.856;2023-08-07T03:54:21;6.63;;;2.90;;
5042;SDS011;2540;50.928;6.856;2023-08-07T03:56:46;7.80;;;2.73;;
5042;SDS011;2540;50.928;6.856;2023-08-07T03:59:13;7.63;;;2.60;;
5042;SDS011;2540;50.928;6.856;2023-08-07T04:01:38;9.60;;;2.77;;
5042;SDS011;2540;50.928;6.856;2023-08-07T04:04:03;8.40;;;2.60;;
5042;SDS011;2540;50.928;6.856;2023-08-07T04:06:29;7.23;;;3.00;;
5042;SDS011;2540;50.928;6.856;2023-08-07T04:08:54;6.70;;;2.60;;
5042;SDS011;2540;50.928;6.856;2023-08-07T04:11:19;5.70;;;2.57;;
5042;SDS011;2540;50.928;6.856;2023-08-07T04:13:44;13.33;;;2.90;;
5042;SDS011;2540;50.928;6.856;2023-08-07T04:16:10;4.30;;;2.93;;
5042;SDS011;2540;50.928;6.856;2023-08-07T04:18:35;8.23;;;3.90;;
5042;SDS011;2540;50.928;6.856;2023-08-07T04:21:00;9.87;;;3.27;;
5042;SDS011;2540;50.928;6.856;2023-08-07T04:23:26;9.30;;;3.10;;
5042;SDS011;2540;50.928;6.856;2023-08-07T04:25:52;12.10;;;3.27;;
5042;SDS011;2540;50.928;6.856;2023-08-07T04:28:17;12.00;;;3.43;;
5042;SDS011;2540;50.928;6.856;2023-08-07T04:30:43;10.10;;;4.20;;
5042;SDS011;2540;50.928;6.856;2023-08-07T04:33:09;11.20;;;3.73;;
5042;SDS011;2540;50.928;6.856;2023-08-07T04:35:35;12.43;;;3.40;;
5042;SDS011;2540;50.928;6.856;2023-08-07T04:38:00;20.83;;;3.77;;
5042;SDS011;2540;50.928;6.856;2023-08-07T04:40:27;6.30;;;3.37;;
5042;SDS011;2540;50.928;6.856;2023-08-07T04:42:52;8.57;;;3.17;;
5042;SDS011;2540;50.928;6.856;2023-08-07T04:45:18;6.27;;;2.80;;
5042;SDS011;2540;50.928;6.856;2023-08-07T04:47:43;11.00;;;3.50;;
5042;SDS011;2540;50.928;6.856;2023-08-07T04:50:08;14.57;;;4.07;;
5042;SDS011;2540;50.928;6.856;2023-08-07T04:52:34;9.93;;;3.93;;
5042;SDS011;2540;50.928;6.856;2023-08-07T04:55:00;18.10;;;3.80;;
5042;SDS011;2540;50.928;6.856;2023-08-07T04:57:25;10.40;;;4.27;;
5042;SDS011;2540;50.928;6.856;2023-08-07T04:59:51;10.57;;;3.13;;
5042;SDS011;2540;50.928;6.856;2023-08-07T05:02:17;11.90;;;3.00;;
5042;SDS011;2540;50.928;6.856;2023-08-07T05:04:42;9.73;;;2.77;;
5042;SDS011;2540;50.928;6.856;2023-08-07T05:07:08;6.00;;;2.60;;
5042;SDS011;2540;50.928;6.856;2023-08-07T05:09:33;7.90;;;2.53;;
5042;SDS011;2540;50.928;6.856;2023-08-07T05:11:58;15.20;;;3.40;;
5042;SDS011;2540;50.928;6.856;2023-08-07T05:14:24;7.37;;;2.90;;
5042;SDS011;2540;50.928;6.856;2023-08-07T05:16:49;10.60;;;3.03;;
5042;SDS011;2540;50.928;6.856;2023-08-07T05:19:14;8.20;;;3.00;;
5042;SDS011;2540;50.928;6.856;2023-08-07T05:21:40;10.47;;;3.07;;
5042;SDS011;2540;50.928;6.856;2023-08-07T05:24:05;5.30;;;3.00;;
5042;SDS011;2540;50.928;6.856;2023-08-07T05:26:30;10.40;;;2.40;;
5042;SDS011;2540;50.928;6.856;2023-08-07T05:28:56;9.23;;;2.67;;
5042;SDS011;2540;50.928;6.856;2023-08-07T05:31:24;6.33;;;2.50;;
5042;SDS011;2540;50.928;6.856;2023-08-07T05:33:50;11.20;;;3.00;;
5042;SDS011;2540;50.928;6.856;2023-08-07T05:36:15;6.27;;;2.23;;
5042;SDS011;2540;50.928;6.856;2023-08-07T05:38:40;10.10;;;2.63;;
5042;SDS011;2540;50.928;6.856;2023-08-07T05:41:06;6.07;;;2.40;;
5042;SDS011;2540;50.928;6.856;2023-08-07T05:43:31;12.77;;;2.60;;
5042;SDS011;2540;50.928;6.856;2023-08-07T05:45:57;6.03;;;2.53;;
5042;SDS011;2540;50.928;6.856;2023-08-07T05:48:22;8.13;;;2.50;;
5042;SDS011;2540;50.928;6.856;2023-08-07T05:50:47;7.37;;;2.03;;
5042;SDS011;2540;50.928;6.856;2023-08-07T05:53:13;8.43;;;2.40;;
5042;SDS011;2540;50.928;6.856;2023-08-07T05:55:41;4.80;;;2.73;;
5042;SDS011;2540;50.928;6.856;2023-08-07T05:58:07;6.73;;;2.30;;
5042;SDS011;2540;50.928;6.856;2023-08-07T06:00:32;8.70;;;2.50;;
5042;SDS011;2540;50.928;6.856;2023-08-07T06:02:57;8.63;;;2.23;;
5042;SDS011;2540;50.928;6.856;2023-08-07T06:05:23;3.60;;;2.40;;
5042;SDS011;2540;50.928;6.856;2023-08-07T06:07:49;5.10;;;1.80;;
5042;SDS011;2540;50.928;6.856;2023-08-07T06:10:14;10.60;;;2.47;;
5042;SDS011;2540;50.928;6.856;2023-08-07T06:12:39;6.00;;;2.80;;
5042;SDS011;2540;50.928;6.856;2023-08-07T06:15:05;6.20;;;2.40;;
5042;SDS011;2540;50.928;6.856;2023-08-07T06:17:30;3.43;;;2.60;;
5042;SDS011;2540;50.928;6.856;2023-08-07T06:19:56;6.30;;;2.70;;
5042;SDS011;2540;50.928;6.856;2023-08-07T06:22:21;3.80;;;2.10;;
5042;SDS011;2540;50.928;6.856;2023-08-07T06:24:47;8.70;;;2.40;;
5042;SDS011;2540;50.928;6.856;2023-08-07T06:27:12;5.10;;;1.70;;
5042;SDS011;2540;50.928;6.856;2023-08-07T06:29:37;10.77;;;2.30;;
5042;SDS011;2540;50.928;6.856;2023-08-07T06:32:03;5.40;;;2.23;;
5042;SDS011;2540;50.928;6.856;2023-08-07T06:34:28;8.27;;;3.07;;
5042;SDS011;2540;50.928;6.856;2023-08-07T06:36:53;5.23;;;2.60;;
5042;SDS011;2540;50.928;6.856;2023-08-07T06:39:19;7.57;;;2.33;;
5042;SDS011;2540;50.928;6.856;2023-08-07T06:41:44;6.40;;;2.40;;
5042;SDS011;2540;50.928;6.856;2023-08-07T06:44:10;5.10;;;2.50;;
5042;SDS011;2540;50.928;6.856;2023-08-07T06:46:35;9.53;;;2.90;;
5042;SDS011;2540;50.928;6.856;2023-08-07T06:49:00;6.47;;;2.50;;
5042;SDS011;2540;50.928;6.856;2023-08-07T06:51:25;8.73;;;2.60;;
5042;SDS011;2540;50.928;6.856;2023-08-07T06:53:51;6.73;;;2.70;;
5042;SDS011;2540;50.928;6.856;2023-08-07T06:56:16;5.57;;;2.10;;
5042;SDS011;2540;50.928;6.856;2023-08-07T06:58:42;12.57;;;2.87;;
5042;SDS011;2540;50.928;6.856;2023-08-07T07:01:08;9.50;;;2.70;;
5042;SDS011;2540;50.928;6.856;2023-08-07T07:03:33;14.53;;;3.17;;
5042;SDS011;2540;50.928;6.856;2023-08-07T07:05:58;6.77;;;2.97;;
5042;SDS011;2540;50.928;6.856;2023-08-07T07:08:24;12.53;;;2.93;;
5042;SDS011;2540;50.928;6.856;2023-08-07T07:10:49;10.20;;;2.80;;
5042;SDS011;2540;50.928;6.856;2023-08-07T07:13:14;9.47;;;2.80;;
5042;SDS011;2540;50.928;6.856;2023-08-07T07:15:40;8.33;;;3.07;;
5042;SDS011;2540;50.928;6.856;2023-08-07T07:18:05;6.70;;;2.60;;
5042;SDS011;2540;50.928;6.856;2023-08-07T07:20:31;11.23;;;3.27;;
5042;SDS011;2540;50.928;6.856;2023-08-07T07:22:56;8.30;;;2.77;;
5042;SDS011;2540;50.928;6.856;2023-08-07T07:25:21;8.07;;;2.63;;
5042;SDS011;2540;50.928;6.856;2023-08-07T07:27:47;9.83;;;3.03;;
5042;SDS011;2540;50.928;6.856;2023-08-07T07:30:12;10.20;;;3.10;;
5042;SDS011;2540;50.928;6.856;2023-08-07T07:32:37;11.97;;;2.70;;
5042;SDS011;2540;50.928;6.856;2023-08-07T07:35:03;12.37;;;3.07;;
5042;SDS011;2540;50.928;6.856;2023-08-07T07:37:29;8.70;;;2.97;;
5042;SDS011;2540;50.928;6.856;2023-08-07T07:39:55;15.30;;;4.33;;
5042;SDS011;2540;50.928;6.856;2023-08-07T07:42:20;10.27;;;3.20;;
5042;SDS011;2540;50.928;6.856;2023-08-07T07:44:46;8.60;;;3.33;;
5042;SDS011;2540;50.928;6.856;2023-08-07T07:47:11;5.80;;;3.30;;
5042;SDS011;2540;50.928;6.856;2023-08-07T07:49:36;3.97;;;2.50;;
5042;SDS011;2540;50.928;6.856;2023-08-07T07:52:02;11.70;;;3.50;;
5042;SDS011;2540;50.928;6.856;2023-08-07T07:54:28;8.93;;;3.03;;
5042;SDS011;2540;50.928;6.856;2023-08-07T07:56:53;17.60;;;3.23;;
5042;SDS011;2540;50.928;6.856;2023-08-07T07:59:18;8.83;;;2.77;;
5042;SDS011;2540;50.928;6.856;2023-08-07T08:01:44;7.43;;;3.13;;
5042;SDS011;2540;50.928;6.856;2023-08-07T08:04:09;8.17;;;4.00;;
5042;SDS011;2540;50.928;6.856;2023-08-07T08:06:37;8.17;;;3.13;;
5042;SDS011;2540;50.928;6.856;2023-08-07T08:09:03;10.00;;;2.70;;
5042;SDS011;2540;50.928;6.856;2023-08-07T08:11:29;12.33;;;3.00;;
5042;SDS011;2540;50.928;6.856;2023-08-07T08:13:55;4.77;;;3.07;;
5042;SDS011;2540;50.928;6.856;2023-08-07T08:16:20;4.47;;;2.10;;
5042;SDS011;2540;50.928;6.856;2023-08-07T08:18:46;6.67;;;2.30;;
5042;SDS011;2540;50.928;6.856;2023-08-07T08:21:11;10.67;;;3.07;;
5042;SDS011;2540;50.928;6.856;2023-08-07T08:23:36;6.90;;;2.93;;
5042;SDS011;2540;50.928;6.856;2023-08-07T08:26:02;11.60;;;2.70;;
5042;SDS011;2540;50.928;6.856;2023-08-07T08:28:27;8.70;;;2.53;;
5042;SDS011;2540;50.928;6.856;2023-08-07T08:30:52;7.23;;;2.40;;
5042;SDS011;2540;50.928;6.856;2023-08-07T08:33:18;13.10;;;2.43;;
5042;SDS011;2540;50.928;6.856;2023-08-07T08:35:43;4.60;;;2.70;;
5042;SDS011;2540;50.928;6.856;2023-08-07T08:38:08;7.07;;;2.50;;
5042;SDS011;2540;50.928;6.856;2023-08-07T08:40:34;8.83;;;2.83;;
5042;SDS011;2540;50.928;6.856;2023-08-07T08:43:01;5.70;;;2.20;;
5042;SDS011;2540;50.928;6.856;2023-08-07T08:45:27;9.10;;;2.53;;
5042;SDS011;2540;50.928;6.856;2023-08-07T08:47:57;14.33;;;2.10;;
5042;SDS011;2540;50.928;6.856;2023-08-07T08:50:26;11.97;;;2.20;;
5042;SDS011;2540;50.928;6.856;2023-08-07T08:52:51;5.30;;;2.27;;
5042;SDS011;2540;50.928;6.856;2023-08-07T08:55:19;5.80;;;2.47;;
5042;SDS011;2540;50.928;6.856;2023-08-07T08:57:45;5.57;;;2.87;;
5042;SDS011;2540;50.928;6.856;2023-08-07T09:00:11;3.87;;;2.10;;
5042;SDS011;2540;50.928;6.856;2023-08-07T09:02:50;4.90;;;2.13;;
5042;SDS011;2540;50.928;6.856;2023-08-07T09:05:16;12.03;;;2.63;;
5042;SDS011;2540;50.928;6.856;2023-08-07T09:07:42;8.60;;;2.60;;
5042;SDS011;2540;50.928;6.856;2023-08-07T09:10:08;19.00;;;2.17;;
5042;SDS011;2540;50.928;6.856;2023-08-07T09:15:36;8.83;;;2.30;;
5042;SDS011;2540;50.928;6.856;2023-08-07T09:18:04;4.57;;;2.57;;
5042;SDS011;2540;50.928;6.856;2023-08-07T09:20:32;4.43;;;2.23;;
5042;SDS011;2540;50.928;6.856;2023-08-07T09:22:59;4.70;;;1.80;;
5042;SDS011;2540;50.928;6.856;2023-08-07T09:25:28;7.70;;;2.03;;
5042;SDS011;2540;50.928;6.856;2023-08-07T09:27:54;8.83;;;2.53;;
5042;SDS011;2540;50.928;6.856;2023-08-07T09:30:21;6.73;;;1.83;;
5042;SDS011;2540;50.928;6.856;2023-08-07T09:32:51;5.00;;;1.80;;
5042;SDS011;2540;50.928;6.856;2023-08-07T09:35:19;4.63;;;1.50;;
5042;SDS011;2540;50.928;6.856;2023-08-07T09:37:46;5.03;;;1.97;;
5042;SDS011;2540;50.928;6.856;2023-08-07T09:40:11;9.03;;;2.60;;
5042;SDS011;2540;50.928;6.856;2023-08-07T09:42:37;6.53;;;2.53;;
5042;SDS011;2540;50.928;6.856;2023-08-07T09:45:03;6.53;;;1.80;;
5042;SDS011;2540;50.928;6.856;2023-08-07T09:47:44;8.43;;;2.17;;
5042;SDS011;2540;50.928;6.856;2023-08-07T09:50:09;3.33;;;1.63;;
5042;SDS011;2540;50.928;6.856;2023-08-07T09:52:40;4.00;;;1.70;;
5042;SDS011;2540;50.928;6.856;2023-08-07T09:55:06;7.07;;;1.97;;
5042;SDS011;2540;50.928;6.856;2023-08-07T09:57:32;14.47;;;2.30;;
5042;SDS011;2540;50.928;6.856;2023-08-07T09:59:57;7.00;;;2.07;;
5042;SDS011;2540;50.928;6.856;2023-08-07T10:02:25;6.63;;;1.93;;
5042;SDS011;2540;50.928;6.856;2023-08-07T10:04:50;2.20;;;1.27;;
5042;SDS011;2540;50.928;6.856;2023-08-07T10:07:16;5.80;;;1.70;;
5042;SDS011;2540;50.928;6.856;2023-08-07T10:09:41;9.63;;;1.97;;
5042;SDS011;2540;50.928;6.856;2023-08-07T10:12:07;4.30;;;2.40;;
5042;SDS011;2540;50.928;6.856;2023-08-07T10:14:33;3.43;;;1.80;;
5042;SDS011;2540;50.928;6.856;2023-08-07T10:16:58;4.07;;;1.90;;
5042;SDS011;2540;50.928;6.856;2023-08-07T10:19:23;5.43;;;1.60;;
5042;SDS011;2540;50.928;6.856;2023-08-07T10:21:49;5.53;;;2.70;;
5042;SDS011;2540;50.928;6.856;2023-08-07T10:24:15;4.17;;;1.27;;
5042;SDS011;2540;50.928;6.856;2023-08-07T10:26:44;4.80;;;1.57;;
5042;SDS011;2540;50.928;6.856;2023-08-07T10:29:11;8.87;;;1.70;;
5042;SDS011;2540;50.928;6.856;2023-08-07T10:31:39;6.03;;;2.60;;
5042;SDS011;2540;50.928;6.856;2023-08-07T10:34:07;4.27;;;2.30;;
5042;SDS011;2540;50.928;6.856;2023-08-07T10:36:33;8.33;;;1.97;;
5042;SDS011;2540;50.928;6.856;2023-08-07T10:39:09;5.20;;;1.40;;
5042;SDS011;2540;50.928;6.856;2023-08-07T10:41:40;5.20;;;1.53;;
5042;SDS011;2540;50.928;6.856;2023-08-07T10:46:48;3.73;;;1.00;;
5042;SDS011;2540;50.928;6.856;2023-08-07T10:52:10;2.73;;;1.67;;
5042;SDS011;2540;50.928;6.856;2023-08-07T10:54:41;4.90;;;1.10;;
5042;SDS011;2540;50.928;6.856;2023-08-07T10:57:14;15.63;;;1.50;;
5042;SDS011;2540;50.928;6.856;2023-08-07T10:59:50;5.10;;;1.27;;
5042;SDS011;2540;50.928;6.856;2023-08-07T11:02:35;2.93;;;1.53;;
5042;SDS011;2540;50.928;6.856;2023-08-07T11:05:04;5.50;;;1.73;;
5042;SDS011;2540;50.928;6.856;2023-08-07T11:07:30;4.70;;;1.47;;
5042;SDS011;2540;50.928;6.856;2023-08-07T11:09:56;3.30;;;1.60;;
5042;SDS011;2540;50.928;6.856;2023-08-07T11:12:25;3.80;;;1.40;;
5042;SDS011;2540;50.928;6.856;2023-08-07T11:14:51;4.07;;;1.50;;
5042;SDS011;2540;50.928;6.856;2023-08-07T11:17:27;2.30;;;1.30;;
5042;SDS011;2540;50.928;6.856;2023-08-07T11:19:53;3.33;;;1.60;;
5042;SDS011;2540;50.928;6.856;2023-08-07T11:22:19;3.67;;;1.70;;
5042;SDS011;2540;50.928;6.856;2023-08-07T11:24:45;2.73;;;1.43;;
5042;SDS011;2540;50.928;6.856;2023-08-07T11:27:11;1.30;;;0.90;;
5042;SDS011;2540;50.928;6.856;2023-08-07T11:29:36;3.43;;;1.40;;
5042;SDS011;2540;50.928;6.856;2023-08-07T11:32:01;4.63;;;1.60;;
5042;SDS011;2540;50.928;6.856;2023-08-07T11:34:27;2.77;;;1.10;;
5042;SDS011;2540;50.928;6.856;2023-08-07T11:36:52;3.73;;;1.77;;
5042;SDS011;2540;50.928;6.856;2023-08-07T11:39:20;4.10;;;1.60;;
5042;SDS011;2540;50.928;6.856;2023-08-07T11:41:45;7.93;;;1.63;;
5042;SDS011;2540;50.928;6.856;2023-08-07T11:44:11;1.40;;;1.23;;
5042;SDS011;2540;50.928;6.856;2023-08-07T11:46:37;7.00;;;1.37;;
5042;SDS011;2540;50.928;6.856;2023-08-07T11:49:02;2.57;;;1.50;;
5042;SDS011;2540;50.928;6.856;2023-08-07T11:51:29;2.53;;;1.33;;
5042;SDS011;2540;50.928;6.856;2023-08-07T11:53:55;2.53;;;1.27;;
5042;SDS011;2540;50.928;6.856;2023-08-07T11:56:23;5.10;;;1.80;;
5042;SDS011;2540;50.928;6.856;2023-08-07T11:58:48;4.47;;;1.53;;
5042;SDS011;2540;50.928;6.856;2023-08-07T12:01:18;8.60;;;2.50;;
5042;SDS011;2540;50.928;6.856;2023-08-07T12:04:27;2.60;;;1.23;;
5042;SDS011;2540;50.928;6.856;2023-08-07T12:06:34;2.20;;;1.57;;
5042;SDS011;2540;50.928;6.856;2023-08-07T12:09:08;5.30;;;1.63;;
5042;SDS011;2540;50.928;6.856;2023-08-07T12:11:37;5.37;;;1.70;;
5042;SDS011;2540;50.928;6.856;2023-08-07T12:14:03;3.07;;;1.23;;
5042;SDS011;2540;50.928;6.856;2023-08-07T12:16:31;3.43;;;1.77;;
5042;SDS011;2540;50.928;6.856;2023-08-07T12:18:58;2.90;;;1.83;;
5042;SDS011;2540;50.928;6.856;2023-08-07T12:21:23;3.83;;;1.63;;
5042;SDS011;2540;50.928;6.856;2023-08-07T12:23:49;4.80;;;1.60;;
5042;SDS011;2540;50.928;6.856;2023-08-07T12:26:16;4.23;;;1.60;;
5042;SDS011;2540;50.928;6.856;2023-08-07T12:28:42;3.97;;;1.63;;
5042;SDS011;2540;50.928;6.856;2023-08-07T12:31:07;2.30;;;1.37;;
5042;SDS011;2540;50.928;6.856;2023-08-07T12:33:32;6.40;;;1.60;;
5042;SDS011;2540;50.928;6.856;2023-08-07T12:35:58;3.40;;;1.60;;
5042;SDS011;2540;50.928;6.856;2023-08-07T12:38:24;2.83;;;1.10;;
5042;SDS011;2540;50.928;6.856;2023-08-07T12:40:49;4.03;;;1.60;;
5042;SDS011;2540;50.928;6.856;2023-08-07T12:43:14;2.43;;;1.27;;
5042;SDS011;2540;50.928;6.856;2023-08-07T12:45:40;6.33;;;2.00;;
5042;SDS011;2540;50.928;6.856;2023-08-07T12:48:05;4.87;;;1.73;;
5042;SDS011;2540;50.928;6.856;2023-08-07T12:50:30;3.23;;;1.40;;
5042;SDS011;2540;50.928;6.856;2023-08-07T12:52:56;4.43;;;1.70;;
5042;SDS011;2540;50.928;6.856;2023-08-07T12:55:21;2.00;;;1.30;;
5042;SDS011;2540;50.928;6.856;2023-08-07T12:57:47;2.87;;;1.50;;
5042;SDS011;2540;50.928;6.856;2023-08-07T13:00:14;3.70;;;1.80;;
5042;SDS011;2540;50.928;6.856;2023-08-07T13:02:40;4.33;;;1.43;;
5042;SDS011;2540;50.928;6.856;2023-08-07T13:05:09;1.80;;;1.30;;
5042;SDS011;2540;50.928;6.856;2023-08-07T13:07:35;6.10;;;1.20;;
5042;SDS011;2540;50.928;6.856;2023-08-07T13:10:01;11.83;;;1.87;;
5042;SDS011;2540;50.928;6.856;2023-08-07T13:12:27;3.43;;;1.60;;
5042;SDS011;2540;50.928;6.856;2023-08-07T13:14:52;2.50;;;1.37;;
5042;SDS011;2540;50.928;6.856;2023-08-07T13:17:18;3.90;;;1.70;;
5042;SDS011;2540;50.928;6.856;2023-08-07T13:19:43;4.87;;;1.50;;
5042;SDS011;2540;50.928;6.856;2023-08-07T13:22:09;8.40;;;2.40;;
5042;SDS011;2540;50.928;6.856;2023-08-07T13:24:34;8.20;;;3.07;;
5042;SDS011;2540;50.928;6.856;2023-08-07T13:27:00;6.23;;;3.40;;
5042;SDS011;2540;50.928;6.856;2023-08-07T13:29:25;6.87;;;1.87;;
5042;SDS011;2540;50.928;6.856;2023-08-07T13:31:54;4.20;;;1.50;;
5042;SDS011;2540;50.928;6.856;2023-08-07T13:34:19;7.27;;;3.23;;
5042;SDS011;2540;50.928;6.856;2023-08-07T13:36:45;3.77;;;2.13;;
5042;SDS011;2540;50.928;6.856;2023-08-07T13:39:10;4.50;;;1.60;;
5042;SDS011;2540;50.928;6.856;2023-08-07T13:41:35;7.73;;;2.37;;
5042;SDS011;2540;50.928;6.856;2023-08-07T13:44:01;5.57;;;2.43;;
5042;SDS011;2540;50.928;6.856;2023-08-07T13:46:26;3.10;;;1.67;;
5042;SDS011;2540;50.928;6.856;2023-08-07T13:48:52;5.87;;;2.23;;
5042;SDS011;2540;50.928;6.856;2023-08-07T13:51:17;7.33;;;3.40;;
5042;SDS011;2540;50.928;6.856;2023-08-07T13:53:42;3.80;;;1.47;;
5042;SDS011;2540;50.928;6.856;2023-08-07T13:56:08;3.20;;;1.80;;
5042;SDS011;2540;50.928;6.856;2023-08-07T13:58:36;10.30;;;2.00;;
5042;SDS011;2540;50.928;6.856;2023-08-07T14:01:01;4.47;;;1.77;;
5042;SDS011;2540;50.928;6.856;2023-08-07T14:03:26;3.70;;;1.60;;
5042;SDS011;2540;50.928;6.856;2023-08-07T14:05:52;2.77;;;1.77;;
5042;SDS011;2540;50.928;6.856;2023-08-07T14:08:17;10.50;;;2.10;;
5042;SDS011;2540;50.928;6.856;2023-08-07T14:10:43;4.63;;;1.80;;
5042;SDS011;2540;50.928;6.856;2023-08-07T14:13:08;11.60;;;2.13;;
5042;SDS011;2540;50.928;6.856;2023-08-07T14:15:35;4.10;;;1.90;;
5042;SDS011;2540;50.928;6.856;2023-08-07T14:18:00;3.50;;;2.00;;
5042;SDS011;2540;50.928;6.856;2023-08-07T14:20:25;3.90;;;1.97;;
5042;SDS011;2540;50.928;6.856;2023-08-07T14:22:50;4.17;;;1.50;;
5042;SDS011;2540;50.928;6.856;2023-08-07T14:25:16;5.43;;;2.13;;
5042;SDS011;2540;50.928;6.856;2023-08-07T14:27:41;6.13;;;1.87;;
5042;SDS011;2540;50.928;6.856;2023-08-07T14:30:07;2.57;;;1.90;;
5042;SDS011;2540;50.928;6.856;2023-08-07T14:32:32;6.03;;;1.90;;
5042;SDS011;2540;50.928;6.856;2023-08-07T14:34:58;2.83;;;1.90;;
5042;SDS011;2540;50.928;6.856;2023-08-07T14:37:23;4.00;;;1.70;;
5042;SDS011;2540;50.928;6.856;2023-08-07T14:39:48;6.23;;;1.63;;
5042;SDS011;2540;50.928;6.856;2023-08-07T14:42:13;4.20;;;2.40;;
5042;SDS011;2540;50.928;6.856;2023-08-07T14:44:39;4.53;;;1.90;;
5042;SDS011;2540;50.928;6.856;2023-08-07T14:47:04;3.70;;;1.80;;
5042;SDS011;2540;50.928;6.856;2023-08-07T14:49:29;6.93;;;1.90;;
5042;SDS011;2540;50.928;6.856;2023-08-07T14:51:55;5.43;;;2.27;;
5042;SDS011;2540;50.928;6.856;2023-08-07T14:54:20;3.37;;;1.87;;
5042;SDS011;2540;50.928;6.856;2023-08-07T14:56:45;3.90;;;1.73;;
5042;SDS011;2540;50.928;6.856;2023-08-07T14:59:11;2.90;;;1.70;;
5042;SDS011;2540;50.928;6.856;2023-08-07T15:01:36;4.23;;;2.40;;
5042;SDS011;2540;50.928;6.856;2023-08-07T15:04:01;3.07;;;1.70;;
5042;SDS011;2540;50.928;6.856;2023-08-07T15:06:27;2.47;;;1.50;;
5042;SDS011;2540;50.928;6.856;2023-08-07T15:08:52;5.00;;;1.80;;
5042;SDS011;2540;50.928;6.856;2023-08-07T15:11:17;7.97;;;1.73;;
5042;SDS011;2540;50.928;6.856;2023-08-07T15:13:43;5.23;;;1.67;;
5042;SDS011;2540;50.928;6.856;2023-08-07T15:16:09;4.43;;;1.73;;
5042;SDS011;2540;50.928;6.856;2023-08-07T15:18:35;5.33;;;1.60;;